L'édito

Bonjour et bienvenue sur le site de l’Aéroclub Loudunais, l’ACL.

Situé à 2Km au nord de la ville de Loudun, sur le site du "Pé de Jojo" entre les communes de Véniers et de Basses, l’ACL compte environ 80 membres.

Notre flotte homogène est constituée d'un Jodel 119 et de 3 Robins DR400 (Un 120 cv pour l'école, un 140B de 160 cv et 180 cv de voyage).

Le club intègre une école de pilotage dynamique, avec en moyenne 6 à 8 élèves en formation tous les ans. Les cours sont assurés par deux instructeurs, tous les deux pilotes professionnels.

Structure entièrement bénévole, l’ACL ne vit que par l’engagement de ses membres, notamment ses mécaniciens et ses instructeurs et le soutien logistique de la Ville de Loudun.

Proche de la Loire et de la Vienne, un vol de découverte vous permettra d'avoir un regard différent sur cette région et ses châteaux.

Enfin le site du "Pé de Jojo" vous permettra de découvrir une faune et une flore insoupçonnée dans notre région.

N’hésitez donc pas à venir nous rencontrer pour des informations sur la formation de pilote ou tout simplement pour passer un moment convivial.

Aéronautiquement,

Le Président,
Michel RICHEZ

 Actualités

Rencontres ULM

Championnat régional d’ULM les 8, 9 et 10 mai prochains

Les épreuves auront lieu le samedi et le dimanche matin. Nous déposerons un NOTAM indiquant que la piste sera réservée aux avions basés mais néanmoins ouverte aux autres à condition d’avoir donné un préavis afin de ne pas fermer le terrain.

Bien sûr, tout cela dépendra de la météo.

Admin - 23 février 2015 - Mots clés : aucun

précédentepage 2 sur 2



Webcam :

Nuit aéronautique

24 Feb 2018

Heure locale,
pour LFDL uniquement.

Lever du soleil aéronautique :07:18
Lever du soleil :07:48
Coucher du soleil :18:36
Coucher du soleil aéronautique :19:06

Metar

LFBI :
2018/02/23 23:30
LFBI 232330Z AUTO 03005KT CAVOK M01/M05 Q1011 NOSIG
LFBI :
Poitiers, France (LFBI) 46-35N 000-19E 120M
Feb 23, 2018 - 06:30 PM EST / 2018.02.23 2330 UTC
Wind: from the NNE (030 degrees) at 6 MPH (5 KT):0
Visibility: greater than 7 mile(s):0
Temperature: 30 F (-1 C)
Windchill: 23 F (-5 C):1
Dew Point: 23 F (-5 C)
Relative Humidity: 74%
Pressure (altimeter): 29.85 in. Hg (1011 hPa)
ob: LFBI 232330Z AUTO 03005KT CAVOK M01/M05 Q1011 NOSIG
cycle: 23

Afficher le metar d'une autre station :
Code OACI :

Aéroclub de Loudun


Bellevue
86200 Loudun


Contacter Michel Richez (president)

  • Mail:michel.richez@free.fr
  • Tel:09-50-38-02-06
  • Mobile:06-52-73-09-01



agrandir le plan

Newsletter

Mon e-mail :